John Murtha Johnstown Cambria County Airport
KJST : now visible

Airfield :











YOU CAN JOIN US ON...

 
LOGIN :

Register | Disclaimer

   EN    FR    IT 

 









Legend :    VFR   Marginal VFR   IFR   Intensive IFR   Very Intensive IFR
Visi :
Ceiling :
>= 8 km
>= 3000ft
5 to 8 km
1000 to 3000 ft
1500m to 5 km
500 to 1000 ft
800 to 1500m
200 to 500 ft
< 800m
< 200 ft
Symbols :   Thunderstorms  Fog  Heavy snow  Heavy precipitations  Wind > 20 kt






- Airport Elevation : 2284 ft
- IATA code : JST


KJST - John Murtha Johnstown Cambria County

CURRENT METAR :
  • 200654Z AUTO 30013KT 3SM -SN BR OVC005 M01/M03 A2996 RMK AO2 RAE0555UPB0555E0557SNB05 SLP165 P0000 T10111028

EXPIRED METARs :
  • 200634Z AUTO 29012KT 1 3/4SM -SN BR OVC005 M01/M03 A2995 RMK AO2 RAE0555UPB0555E0557SNB05 CIG 003V008 P0000 T10111028
  • 200616Z AUTO 31012KT 2SM -SN BR OVC005 M01/M02 A2995 RMK AO2 RAE0555UPB0555E0557SNB05 CIG 002V007 P0000 T10061022
  • 200554Z AUTO 29011KT 7SM -RA OVC005 01/M01 A2993 RMK AO2 RAE14B37UPB14E37 CIG 002V009 SLP153 P0000 60002 I6000 T00111006 10039 20011 58004
  • 200454Z AUTO 25010KT 7SM -RA OVC007 02/00 A2994 RMK AO2 CIG 003V010 SLP153 P0001 T00170000 400501061

TAF KJST
Valid from the 20 at 07:00 until the 21 at 06:00 UTC


200640Z 2007/2106 30010G15KT 2SM -SN OVC005
FM201200 33010G15KT P6SM OVC015
FM210500 33007KT P6SM OVC015
KZOB FIR / North America



MET'MAP, your aeronautical weather chart ! - Copyright ORBIFLY December 2007 - Disclaimer

ORBIFLY MET'MAP TEAM :

Programming & Development : Alexandra Zaïnal
Concept & original design : Baudouin d'Aumeries
Assistance for programming : Marc-Olivier Méhu
Technical & hardware support : Manuel Goepfert

Contact : metmap@orbifly.com




SOURCES & CREDITS :

   NOAA       Earth
Advisory